sensor_id;sensor_type;location;lat;lon;timestamp;pressure;altitude;pressure_sealevel;temperature;humidity
72438;BME280;60444;43.534;-5.674;2022-09-01T00:02:14;101805.50;;;20.59;97.28
72438;BME280;60444;43.534;-5.674;2022-09-01T00:04:42;101794.31;;;20.49;97.18
72438;BME280;60444;43.534;-5.674;2022-09-01T00:07:09;101790.47;;;20.52;96.65
72438;BME280;60444;43.534;-5.674;2022-09-01T00:09:36;101793.34;;;20.50;96.38
72438;BME280;60444;43.534;-5.674;2022-09-01T00:12:04;101786.84;;;20.51;97.17
72438;BME280;60444;43.534;-5.674;2022-09-01T00:14:32;101785.94;;;20.51;96.38
72438;BME280;60444;43.534;-5.674;2022-09-01T00:17:00;101782.53;;;20.47;95.69
72438;BME280;60444;43.534;-5.674;2022-09-01T00:19:26;101787.06;;;20.48;96.86
72438;BME280;60444;43.534;-5.674;2022-09-01T00:21:54;101782.47;;;20.49;97.38
72438;BME280;60444;43.534;-5.674;2022-09-01T00:24:20;101769.28;;;20.41;97.16
72438;BME280;60444;43.534;-5.674;2022-09-01T00:26:50;101770.69;;;20.47;96.98
72438;BME280;60444;43.534;-5.674;2022-09-01T00:29:16;101773.25;;;20.37;95.23
72438;BME280;60444;43.534;-5.674;2022-09-01T00:31:42;101772.88;;;20.42;96.91
72438;BME280;60444;43.534;-5.674;2022-09-01T00:34:08;101757.00;;;20.34;97.11
72438;BME280;60444;43.534;-5.674;2022-09-01T00:36:33;101757.88;;;20.22;93.57
72438;BME280;60444;43.534;-5.674;2022-09-01T00:39:00;101750.94;;;20.29;96.69
72438;BME280;60444;43.534;-5.674;2022-09-01T00:41:27;101752.84;;;20.29;97.35
72438;BME280;60444;43.534;-5.674;2022-09-01T00:44:07;101751.72;;;20.31;97.01
72438;BME280;60444;43.534;-5.674;2022-09-01T00:46:45;101738.53;;;20.24;97.57
72438;BME280;60444;43.534;-5.674;2022-09-01T00:49:16;101748.84;;;20.33;97.53
72438;BME280;60444;43.534;-5.674;2022-09-01T00:51:46;101740.19;;;20.26;97.62
72438;BME280;60444;43.534;-5.674;2022-09-01T00:54:19;101747.09;;;20.32;97.37
72438;BME280;60444;43.534;-5.674;2022-09-01T00:56:46;101746.00;;;20.34;97.75
72438;BME280;60444;43.534;-5.674;2022-09-01T00:59:15;101732.34;;;20.33;97.71
72438;BME280;60444;43.534;-5.674;2022-09-01T01:01:41;101719.22;;;20.25;97.76
72438;BME280;60444;43.534;-5.674;2022-09-01T01:04:08;101740.38;;;20.36;97.43
72438;BME280;60444;43.534;-5.674;2022-09-01T01:06:42;101729.50;;;20.34;97.66
72438;BME280;60444;43.534;-5.674;2022-09-01T01:09:18;101710.97;;;20.25;97.38
72438;BME280;60444;43.534;-5.674;2022-09-01T01:11:44;101705.56;;;20.24;97.57
72438;BME280;60444;43.534;-5.674;2022-09-01T01:14:12;101712.19;;;20.21;97.65
72438;BME280;60444;43.534;-5.674;2022-09-01T01:16:41;101710.19;;;20.23;97.29
72438;BME280;60444;43.534;-5.674;2022-09-01T01:22:07;101711.69;;;20.27;97.62
72438;BME280;60444;43.534;-5.674;2022-09-01T01:24:53;101718.97;;;20.28;97.59
72438;BME280;60444;43.534;-5.674;2022-09-01T01:27:20;101705.78;;;20.21;97.72
72438;BME280;60444;43.534;-5.674;2022-09-01T01:29:46;101720.53;;;20.20;95.99
72438;BME280;60444;43.534;-5.674;2022-09-01T01:32:13;101721.19;;;20.11;93.14
72438;BME280;60444;43.534;-5.674;2022-09-01T01:34:39;101720.31;;;20.10;93.39
72438;BME280;60444;43.534;-5.674;2022-09-01T01:37:07;101699.91;;;20.02;95.03
72438;BME280;60444;43.534;-5.674;2022-09-01T01:39:35;101701.31;;;20.07;96.61
72438;BME280;60444;43.534;-5.674;2022-09-01T01:42:00;101708.09;;;20.14;97.82
72438;BME280;60444;43.534;-5.674;2022-09-01T01:44:26;101714.38;;;20.16;97.25
72438;BME280;60444;43.534;-5.674;2022-09-01T01:46:53;101710.66;;;20.17;97.99
72438;BME280;60444;43.534;-5.674;2022-09-01T01:49:22;101710.72;;;20.16;97.41
72438;BME280;60444;43.534;-5.674;2022-09-01T01:51:50;101692.31;;;20.05;98.01
72438;BME280;60444;43.534;-5.674;2022-09-01T01:54:23;101709.56;;;20.07;97.18
72438;BME280;60444;43.534;-5.674;2022-09-01T01:56:50;101707.22;;;20.14;97.40
72438;BME280;60444;43.534;-5.674;2022-09-01T01:59:15;101693.28;;;20.04;97.27
72438;BME280;60444;43.534;-5.674;2022-09-01T02:01:43;101699.78;;;20.03;97.31
72438;BME280;60444;43.534;-5.674;2022-09-01T02:04:14;101711.06;;;20.11;97.61
72438;BME280;60444;43.534;-5.674;2022-09-01T02:06:42;101711.94;;;20.12;97.75
72438;BME280;60444;43.534;-5.674;2022-09-01T02:09:11;101706.56;;;20.10;97.40
72438;BME280;60444;43.534;-5.674;2022-09-01T02:11:37;101704.06;;;20.07;97.75
72438;BME280;60444;43.534;-5.674;2022-09-01T02:14:06;101698.66;;;20.06;98.08
72438;BME280;60444;43.534;-5.674;2022-09-01T02:16:33;101661.47;;;19.89;97.09
72438;BME280;60444;43.534;-5.674;2022-09-01T02:19:01;101703.94;;;20.09;97.30
72438;BME280;60444;43.534;-5.674;2022-09-01T02:21:27;101697.69;;;20.07;97.72
72438;BME280;60444;43.534;-5.674;2022-09-01T02:23:56;101681.75;;;19.99;97.43
72438;BME280;60444;43.534;-5.674;2022-09-01T02:26:28;101703.94;;;20.09;98.17
72438;BME280;60444;43.534;-5.674;2022-09-01T02:28:58;101702.94;;;20.10;97.77
72438;BME280;60444;43.534;-5.674;2022-09-01T02:31:33;101681.53;;;20.02;98.20
72438;BME280;60444;43.534;-5.674;2022-09-01T02:34:07;101670.66;;;20.01;98.22
72438;BME280;60444;43.534;-5.674;2022-09-01T02:36:36;101687.34;;;20.10;98.42
72438;BME280;60444;43.534;-5.674;2022-09-01T02:39:16;101666.94;;;20.02;98.47
72438;BME280;60444;43.534;-5.674;2022-09-01T02:41:42;101667.78;;;20.02;98.19
72438;BME280;60444;43.534;-5.674;2022-09-01T02:44:08;101674.41;;;20.00;96.56
72438;BME280;60444;43.534;-5.674;2022-09-01T02:46:43;101676.91;;;20.03;97.63
72438;BME280;60444;43.534;-5.674;2022-09-01T02:49:11;101681.31;;;20.05;97.82
72438;BME280;60444;43.534;-5.674;2022-09-01T02:51:43;101672.53;;;20.00;98.26
72438;BME280;60444;43.534;-5.674;2022-09-01T02:54:11;101680.56;;;20.03;97.78
72438;BME280;60444;43.534;-5.674;2022-09-01T02:56:39;101666.50;;;19.95;96.90
72438;BME280;60444;43.534;-5.674;2022-09-01T02:59:05;101671.66;;;20.00;97.12
72438;BME280;60444;43.534;-5.674;2022-09-01T03:01:38;101664.50;;;19.97;97.27
72438;BME280;60444;43.534;-5.674;2022-09-01T03:04:05;101678.69;;;20.04;97.68
72438;BME280;60444;43.534;-5.674;2022-09-01T03:06:34;101671.78;;;19.98;97.79
72438;BME280;60444;43.534;-5.674;2022-09-01T03:09:02;101676.78;;;20.04;97.75
72438;BME280;60444;43.534;-5.674;2022-09-01T03:11:30;101668.16;;;19.98;97.93
72438;BME280;60444;43.534;-5.674;2022-09-01T03:13:57;101654.75;;;19.93;97.99
72438;BME280;60444;43.534;-5.674;2022-09-01T03:16:22;101647.63;;;19.91;98.08
72438;BME280;60444;43.534;-5.674;2022-09-01T03:18:49;101665.16;;;20.01;98.20
72438;BME280;60444;43.534;-5.674;2022-09-01T03:21:15;101665.81;;;20.04;98.06
72438;BME280;60444;43.534;-5.674;2022-09-01T03:23:43;101663.41;;;20.00;98.04
72438;BME280;60444;43.534;-5.674;2022-09-01T03:26:09;101658.81;;;20.00;98.39
72438;BME280;60444;43.534;-5.674;2022-09-01T03:28:35;101674.81;;;20.06;97.94
72438;BME280;60444;43.534;-5.674;2022-09-01T03:31:02;101646.81;;;20.01;98.49
72438;BME280;60444;43.534;-5.674;2022-09-01T03:33:29;101650.97;;;20.07;98.77
72438;BME280;60444;43.534;-5.674;2022-09-01T03:35:56;101636.06;;;19.98;98.30
72438;BME280;60444;43.534;-5.674;2022-09-01T03:38:23;101642.34;;;20.00;98.50
72438;BME280;60444;43.534;-5.674;2022-09-01T03:40:51;101639.22;;;20.05;98.03
72438;BME280;60444;43.534;-5.674;2022-09-01T03:43:18;101643.84;;;20.04;98.43
72438;BME280;60444;43.534;-5.674;2022-09-01T03:45:48;101637.47;;;20.04;97.74
72438;BME280;60444;43.534;-5.674;2022-09-01T03:48:13;101640.56;;;19.99;97.53
72438;BME280;60444;43.534;-5.674;2022-09-01T03:50:42;101632.44;;;19.98;98.27
72438;BME280;60444;43.534;-5.674;2022-09-01T03:53:15;101635.94;;;20.00;98.43
72438;BME280;60444;43.534;-5.674;2022-09-01T03:55:46;101630.47;;;20.00;98.46
72438;BME280;60444;43.534;-5.674;2022-09-01T03:58:18;101625.00;;;19.87;98.00
72438;BME280;60444;43.534;-5.674;2022-09-01T04:00:46;101640.56;;;19.99;98.21
72438;BME280;60444;43.534;-5.674;2022-09-01T04:03:12;101613.50;;;19.82;97.54
72438;BME280;60444;43.534;-5.674;2022-09-01T04:05:42;101632.56;;;19.96;97.89
72438;BME280;60444;43.534;-5.674;2022-09-01T04:08:10;101629.28;;;19.91;97.78
72438;BME280;60444;43.534;-5.674;2022-09-01T04:10:45;101635.50;;;19.93;97.48
72438;BME280;60444;43.534;-5.674;2022-09-01T04:15:51;101615.13;;;19.85;98.06
72438;BME280;60444;43.534;-5.674;2022-09-01T04:18:17;101638.38;;;19.92;97.96
72438;BME280;60444;43.534;-5.674;2022-09-01T04:20:54;101629.72;;;19.85;96.72
72438;BME280;60444;43.534;-5.674;2022-09-01T04:23:33;101628.59;;;19.88;98.16
72438;BME280;60444;43.534;-5.674;2022-09-01T04:26:03;101628.84;;;19.85;97.93
72438;BME280;60444;43.534;-5.674;2022-09-01T04:28:43;101622.84;;;19.80;98.10
72438;BME280;60444;43.534;-5.674;2022-09-01T04:31:13;101602.44;;;19.71;97.76
72438;BME280;60444;43.534;-5.674;2022-09-01T04:33:42;101611.31;;;19.75;97.60
72438;BME280;60444;43.534;-5.674;2022-09-01T04:38:52;101619.06;;;19.81;98.51
72438;BME280;60444;43.534;-5.674;2022-09-01T04:41:20;101611.06;;;19.78;97.23
72438;BME280;60444;43.534;-5.674;2022-09-01T04:43:47;101627.44;;;19.79;98.12
72438;BME280;60444;43.534;-5.674;2022-09-01T04:46:14;101602.44;;;19.71;98.09
72438;BME280;60444;43.534;-5.674;2022-09-01T04:48:41;101604.41;;;19.69;97.76
72438;BME280;60444;43.534;-5.674;2022-09-01T04:51:10;101598.16;;;19.67;97.82
72438;BME280;60444;43.534;-5.674;2022-09-01T04:53:37;101609.66;;;19.72;97.56
72438;BME280;60444;43.534;-5.674;2022-09-01T04:56:07;101601.78;;;19.68;97.05
72438;BME280;60444;43.534;-5.674;2022-09-01T04:58:35;101591.78;;;19.67;97.81
72438;BME280;60444;43.534;-5.674;2022-09-01T05:01:01;101588.75;;;19.58;97.81
72438;BME280;60444;43.534;-5.674;2022-09-01T05:03:38;101586.84;;;19.59;98.02
72438;BME280;60444;43.534;-5.674;2022-09-01T05:06:03;101600.47;;;19.60;96.86
72438;BME280;60444;43.534;-5.674;2022-09-01T05:08:29;101574.69;;;19.50;97.84
72438;BME280;60444;43.534;-5.674;2022-09-01T05:10:56;101588.09;;;19.55;97.94
72438;BME280;60444;43.534;-5.674;2022-09-01T05:13:21;101594.13;;;19.60;98.50
72438;BME280;60444;43.534;-5.674;2022-09-01T05:15:59;101594.31;;;19.57;98.33
72438;BME280;60444;43.534;-5.674;2022-09-01T05:18:26;101574.03;;;19.47;97.90
72438;BME280;60444;43.534;-5.674;2022-09-01T05:20:53;101596.97;;;19.58;98.71
72438;BME280;60444;43.534;-5.674;2022-09-01T05:23:19;101588.63;;;19.60;99.15
72438;BME280;60444;43.534;-5.674;2022-09-01T05:25:48;101591.56;;;19.57;99.07
72438;BME280;60444;43.534;-5.674;2022-09-01T05:28:15;101575.06;;;19.46;99.24
72438;BME280;60444;43.534;-5.674;2022-09-01T05:30:44;101576.91;;;19.45;98.27
72438;BME280;60444;43.534;-5.674;2022-09-01T05:33:10;101581.19;;;19.49;98.59
72438;BME280;60444;43.534;-5.674;2022-09-01T05:35:42;101594.31;;;19.57;98.71
72438;BME280;60444;43.534;-5.674;2022-09-01T05:38:17;101586.31;;;19.54;98.32
72438;BME280;60444;43.534;-5.674;2022-09-01T05:40:43;101585.13;;;19.58;99.10
72438;BME280;60444;43.534;-5.674;2022-09-01T05:43:11;101581.34;;;19.59;98.92
72438;BME280;60444;43.534;-5.674;2022-09-01T05:45:41;101598.06;;;19.56;98.54
72438;BME280;60444;43.534;-5.674;2022-09-01T05:48:12;101590.59;;;19.58;98.18
72438;BME280;60444;43.534;-5.674;2022-09-01T05:50:44;101583.69;;;19.52;98.16
72438;BME280;60444;43.534;-5.674;2022-09-01T05:53:11;101578.66;;;19.46;97.65
72438;BME280;60444;43.534;-5.674;2022-09-01T05:55:45;101589.41;;;19.49;98.15
72438;BME280;60444;43.534;-5.674;2022-09-01T05:58:15;101605.28;;;19.57;97.75
72438;BME280;60444;43.534;-5.674;2022-09-01T06:00:45;101607.31;;;19.55;97.32
72438;BME280;60444;43.534;-5.674;2022-09-01T06:03:14;101597.75;;;19.48;98.15
72438;BME280;60444;43.534;-5.674;2022-09-01T06:05:42;101612.56;;;19.58;97.73
72438;BME280;60444;43.534;-5.674;2022-09-01T06:08:12;101595.00;;;19.48;97.94
72438;BME280;60444;43.534;-5.674;2022-09-01T06:10:40;101594.78;;;19.51;97.07
72438;BME280;60444;43.534;-5.674;2022-09-01T06:13:09;101605.78;;;19.51;97.72
72438;BME280;60444;43.534;-5.674;2022-09-01T06:15:37;101613.00;;;19.52;97.37
72438;BME280;60444;43.534;-5.674;2022-09-01T06:18:07;101594.34;;;19.44;97.53
72438;BME280;60444;43.534;-5.674;2022-09-01T06:20:33;101605.88;;;19.49;96.66
72438;BME280;60444;43.534;-5.674;2022-09-01T06:23:03;101588.31;;;19.39;97.09
72438;BME280;60444;43.534;-5.674;2022-09-01T06:25:29;101586.59;;;19.38;97.50
72438;BME280;60444;43.534;-5.674;2022-09-01T06:27:55;101605.97;;;19.48;96.84
72438;BME280;60444;43.534;-5.674;2022-09-01T06:30:22;101587.34;;;19.40;97.48
72438;BME280;60444;43.534;-5.674;2022-09-01T06:32:49;101610.38;;;19.50;97.37
72438;BME280;60444;43.534;-5.674;2022-09-01T06:35:16;101603.22;;;19.48;97.30
72438;BME280;60444;43.534;-5.674;2022-09-01T06:37:42;101595.34;;;19.43;96.92
72438;BME280;60444;43.534;-5.674;2022-09-01T06:40:10;101603.22;;;19.48;97.14
72438;BME280;60444;43.534;-5.674;2022-09-01T06:42:51;101596.13;;;19.45;97.24
72438;BME280;60444;43.534;-5.674;2022-09-01T06:45:22;101606.75;;;19.50;97.64
72438;BME280;60444;43.534;-5.674;2022-09-01T06:47:49;101595.47;;;19.42;97.75
72438;BME280;60444;43.534;-5.674;2022-09-01T06:50:19;101610.50;;;19.49;97.37
72438;BME280;60444;43.534;-5.674;2022-09-01T06:52:47;101613.13;;;19.50;97.80
72438;BME280;60444;43.534;-5.674;2022-09-01T06:55:15;101592.59;;;19.43;97.16
72438;BME280;60444;43.534;-5.674;2022-09-01T06:57:42;101597.22;;;19.43;97.48
72438;BME280;60444;43.534;-5.674;2022-09-01T07:00:19;101597.97;;;19.45;96.94
72438;BME280;60444;43.534;-5.674;2022-09-01T07:02:46;101609.47;;;19.50;97.45
72438;BME280;60444;43.534;-5.674;2022-09-01T07:05:14;101613.00;;;19.52;97.20
72438;BME280;60444;43.534;-5.674;2022-09-01T07:07:52;101611.13;;;19.52;97.17
72438;BME280;60444;43.534;-5.674;2022-09-01T07:10:21;101586.22;;;19.43;96.60
72438;BME280;60444;43.534;-5.674;2022-09-01T07:12:55;101610.91;;;19.55;96.80
72438;BME280;60444;43.534;-5.674;2022-09-01T07:15:24;101597.53;;;19.51;96.97
72438;BME280;60444;43.534;-5.674;2022-09-01T07:17:52;101588.66;;;19.47;96.99
72438;BME280;60444;43.534;-5.674;2022-09-01T07:20:20;101598.50;;;19.50;95.76
72438;BME280;60444;43.534;-5.674;2022-09-01T07:22:47;101585.25;;;19.44;96.24
72438;BME280;60444;43.534;-5.674;2022-09-01T07:25:13;101612.56;;;19.58;96.25
72438;BME280;60444;43.534;-5.674;2022-09-01T07:27:40;101610.22;;;19.64;97.28
72438;BME280;60444;43.534;-5.674;2022-09-01T07:30:14;101592.94;;;19.51;96.12
72438;BME280;60444;43.534;-5.674;2022-09-01T07:32:40;101594.31;;;19.57;97.18
72438;BME280;60444;43.534;-5.674;2022-09-01T07:35:08;101601.13;;;19.64;97.22
72438;BME280;60444;43.534;-5.674;2022-09-01T07:37:34;101608.91;;;19.70;96.85
72438;BME280;60444;43.534;-5.674;2022-09-01T07:40:14;101598.91;;;19.69;96.47
72438;BME280;60444;43.534;-5.674;2022-09-01T07:42:46;101601.88;;;19.66;95.16
72438;BME280;60444;43.534;-5.674;2022-09-01T07:45:14;101613.59;;;19.81;96.91
72438;BME280;60444;43.534;-5.674;2022-09-01T07:47:42;101609.66;;;19.72;95.00
72438;BME280;60444;43.534;-5.674;2022-09-01T07:50:10;101614.34;;;19.83;96.01
72438;BME280;60444;43.534;-5.674;2022-09-01T07:52:41;101614.03;;;19.87;96.13
72438;BME280;60444;43.534;-5.674;2022-09-01T07:55:17;101622.03;;;19.90;95.62
72438;BME280;60444;43.534;-5.674;2022-09-01T07:57:43;101613.66;;;19.92;95.71
72438;BME280;60444;43.534;-5.674;2022-09-01T08:00:13;101614.88;;;19.88;95.00
72438;BME280;60444;43.534;-5.674;2022-09-01T08:02:43;101596.78;;;19.85;95.85
72438;BME280;60444;43.534;-5.674;2022-09-01T08:05:12;101624.19;;;19.98;96.34
72438;BME280;60444;43.534;-5.674;2022-09-01T08:07:38;101638.34;;;20.04;95.70
72438;BME280;60444;43.534;-5.674;2022-09-01T08:10:06;101628.13;;;20.06;95.86
72438;BME280;60444;43.534;-5.674;2022-09-01T08:12:33;101607.72;;;19.98;95.81
72438;BME280;60444;43.534;-5.674;2022-09-01T08:15:01;101632.28;;;20.12;94.77
72438;BME280;60444;43.534;-5.674;2022-09-01T08:17:26;101634.91;;;20.13;94.59
72438;BME280;60444;43.534;-5.674;2022-09-01T08:19:52;101628.63;;;20.11;95.27
72438;BME280;60444;43.534;-5.674;2022-09-01T08:22:18;101630.53;;;20.11;93.71
72438;BME280;60444;43.534;-5.674;2022-09-01T08:24:48;101633.94;;;20.14;94.58
72438;BME280;60444;43.534;-5.674;2022-09-01T08:27:14;101627.34;;;20.17;94.94
72438;BME280;60444;43.534;-5.674;2022-09-01T08:29:40;101615.91;;;20.10;94.99
72438;BME280;60444;43.534;-5.674;2022-09-01T08:32:05;101629.75;;;20.21;94.51
72438;BME280;60444;43.534;-5.674;2022-09-01T08:34:32;101629.63;;;20.23;94.66
72438;BME280;60444;43.534;-5.674;2022-09-01T08:36:58;101621.00;;;20.27;94.94
72438;BME280;60444;43.534;-5.674;2022-09-01T08:39:24;101609.75;;;20.19;94.41
72438;BME280;60444;43.534;-5.674;2022-09-01T08:42:19;101615.44;;;20.29;94.06
72438;BME280;60444;43.534;-5.674;2022-09-01T08:44:52;101621.69;;;20.31;93.40
72438;BME280;60444;43.534;-5.674;2022-09-01T08:47:21;101615.06;;;20.33;93.68
72438;BME280;60444;43.534;-5.674;2022-09-01T08:49:47;101612.31;;;20.33;93.16
72438;BME280;60444;43.534;-5.674;2022-09-01T08:52:22;101604.19;;;20.32;94.39
72438;BME280;60444;43.534;-5.674;2022-09-01T08:55:13;101615.50;;;20.40;93.87
72438;BME280;60444;43.534;-5.674;2022-09-01T08:57:43;101613.38;;;20.43;93.56
72438;BME280;60444;43.534;-5.674;2022-09-01T09:00:13;101621.00;;;20.51;94.02
72438;BME280;60444;43.534;-5.674;2022-09-01T09:03:06;101612.03;;;20.49;92.74
72438;BME280;60444;43.534;-5.674;2022-09-01T09:14:17;101614.69;;;20.61;93.39
72438;BME280;60444;43.534;-5.674;2022-09-01T09:16:53;101611.94;;;20.61;93.11
72438;BME280;60444;43.534;-5.674;2022-09-01T09:22:00;101598.94;;;20.63;91.24
72438;BME280;60444;43.534;-5.674;2022-09-01T09:24:51;101614.25;;;20.79;91.42
72438;BME280;60444;43.534;-5.674;2022-09-01T09:27:43;101615.50;;;20.86;91.56
72438;BME280;60444;43.534;-5.674;2022-09-01T09:30:11;101613.50;;;20.88;90.78
72438;BME280;60444;43.534;-5.674;2022-09-01T09:32:55;101618.75;;;20.91;89.70
72438;BME280;60444;43.534;-5.674;2022-09-01T09:37:47;101612.66;;;20.98;88.00
72438;BME280;60444;43.534;-5.674;2022-09-01T09:40:16;101610.69;;;21.00;89.21
72438;BME280;60444;43.534;-5.674;2022-09-01T09:47:50;101614.34;;;21.12;86.90
72438;BME280;60444;43.534;-5.674;2022-09-01T09:50:24;101615.63;;;21.19;88.92
72438;BME280;60444;43.534;-5.674;2022-09-01T09:52:53;101614.59;;;21.20;89.29
72438;BME280;60444;43.534;-5.674;2022-09-01T09:55:34;101595.09;;;21.12;90.10
72438;BME280;60444;43.534;-5.674;2022-09-01T09:58:09;101590.22;;;21.15;89.70
72438;BME280;60444;43.534;-5.674;2022-09-01T10:00:36;101587.09;;;21.20;89.57
72438;BME280;60444;43.534;-5.674;2022-09-01T10:03:08;101602.84;;;21.29;87.03
72438;BME280;60444;43.534;-5.674;2022-09-01T10:08:02;101578.22;;;21.38;85.67
72438;BME280;60444;43.534;-5.674;2022-09-01T10:13:08;101574.09;;;21.44;88.64
72438;BME280;60444;43.534;-5.674;2022-09-01T10:15:35;101570.09;;;21.48;88.15
72438;BME280;60444;43.534;-5.674;2022-09-01T10:18:06;101582.06;;;21.58;88.85
72438;BME280;60444;43.534;-5.674;2022-09-01T10:20:33;101566.72;;;21.55;86.55
72438;BME280;60444;43.534;-5.674;2022-09-01T10:23:01;101572.78;;;21.70;86.46
72438;BME280;60444;43.534;-5.674;2022-09-01T10:25:30;101575.56;;;21.81;86.09
72438;BME280;60444;43.534;-5.674;2022-09-01T10:28:07;101566.94;;;21.86;85.07
72438;BME280;60444;43.534;-5.674;2022-09-01T10:30:37;101574.66;;;21.92;84.24
72438;BME280;60444;43.534;-5.674;2022-09-01T10:33:07;101569.41;;;21.89;84.51
72438;BME280;60444;43.534;-5.674;2022-09-01T10:35:34;101573.81;;;21.91;84.53
72438;BME280;60444;43.534;-5.674;2022-09-01T10:38:06;101568.91;;;21.95;84.72
72438;BME280;60444;43.534;-5.674;2022-09-01T10:40:34;101576.03;;;21.97;84.41
72438;BME280;60444;43.534;-5.674;2022-09-01T10:43:35;101584.06;;;22.00;84.42
72438;BME280;60444;43.534;-5.674;2022-09-01T10:48:50;101571.88;;;22.03;84.62
72438;BME280;60444;43.534;-5.674;2022-09-01T10:53:50;101545.72;;;21.97;84.78
72438;BME280;60444;43.534;-5.674;2022-09-01T11:04:13;101550.16;;;22.20;84.12
72438;BME280;60444;43.534;-5.674;2022-09-01T11:06:59;101549.84;;;22.34;82.59
72438;BME280;60444;43.534;-5.674;2022-09-01T11:14:59;101552.25;;;22.59;81.44
72438;BME280;60444;43.534;-5.674;2022-09-01T11:20:32;101537.00;;;22.44;84.96
72438;BME280;60444;43.534;-5.674;2022-09-01T11:25:47;101535.34;;;22.53;85.41
72438;BME280;60444;43.534;-5.674;2022-09-01T11:30:50;101542.50;;;22.55;85.99
72438;BME280;60444;43.534;-5.674;2022-09-01T11:33:27;101542.00;;;22.50;86.37
72438;BME280;60444;43.534;-5.674;2022-09-01T11:36:04;101542.00;;;22.50;86.25
72438;BME280;60444;43.534;-5.674;2022-09-01T11:38:44;101548.78;;;22.46;85.70
72438;BME280;60444;43.534;-5.674;2022-09-01T11:41:21;101524.28;;;22.32;85.74
72438;BME280;60444;43.534;-5.674;2022-09-01T11:43:53;101536.31;;;22.31;86.20
72438;BME280;60444;43.534;-5.674;2022-09-01T11:46:32;101540.31;;;22.38;86.32
72438;BME280;60444;43.534;-5.674;2022-09-01T11:49:02;101551.06;;;22.41;85.56
72438;BME280;60444;43.534;-5.674;2022-09-01T11:51:40;101533.97;;;22.27;86.10
72438;BME280;60444;43.534;-5.674;2022-09-01T11:54:06;101554.63;;;22.32;86.20
72438;BME280;60444;43.534;-5.674;2022-09-01T11:56:32;101552.13;;;22.29;86.10
72438;BME280;60444;43.534;-5.674;2022-09-01T11:58:58;101552.00;;;22.31;85.79
72438;BME280;60444;43.534;-5.674;2022-09-01T12:01:31;101560.59;;;22.37;85.13
72438;BME280;60444;43.534;-5.674;2022-09-01T12:03:57;101551.34;;;22.38;83.78
72438;BME280;60444;43.534;-5.674;2022-09-01T12:06:51;101549.31;;;22.40;83.94
72438;BME280;60444;43.534;-5.674;2022-09-01T12:09:18;101551.44;;;22.37;84.10
72438;BME280;60444;43.534;-5.674;2022-09-01T12:11:43;101548.78;;;22.46;84.34
72438;BME280;60444;43.534;-5.674;2022-09-01T12:14:11;101564.03;;;22.61;84.00
72438;BME280;60444;43.534;-5.674;2022-09-01T12:16:59;101554.22;;;22.69;84.01
72438;BME280;60444;43.534;-5.674;2022-09-01T12:19:28;101554.97;;;22.71;84.07
72438;BME280;60444;43.534;-5.674;2022-09-01T12:22:12;101563.63;;;22.87;83.77
72438;BME280;60444;43.534;-5.674;2022-09-01T12:24:44;101567.88;;;22.91;82.37
72438;BME280;60444;43.534;-5.674;2022-09-01T12:27:11;101548.94;;;22.86;82.30
72438;BME280;60444;43.534;-5.674;2022-09-01T12:29:37;101522.84;;;22.70;80.74
72438;BME280;60444;43.534;-5.674;2022-09-01T12:32:04;101545.91;;;22.89;80.54
72438;BME280;60444;43.534;-5.674;2022-09-01T12:39:41;101541.84;;;22.84;81.61
72438;BME280;60444;43.534;-5.674;2022-09-01T12:52:48;101555.97;;;23.20;77.79
72438;BME280;60444;43.534;-5.674;2022-09-01T12:55:18;101553.06;;;23.22;77.79
72438;BME280;60444;43.534;-5.674;2022-09-01T12:57:55;101540.22;;;23.11;76.51
72438;BME280;60444;43.534;-5.674;2022-09-01T13:00:24;101549.72;;;23.18;77.39
72438;BME280;60444;43.534;-5.674;2022-09-01T13:03:15;101544.16;;;23.09;77.23
72438;BME280;60444;43.534;-5.674;2022-09-01T13:05:56;101556.66;;;23.13;76.44
72438;BME280;60444;43.534;-5.674;2022-09-01T13:08:28;101560.28;;;23.13;77.55
72438;BME280;60444;43.534;-5.674;2022-09-01T13:11:14;101553.19;;;23.11;77.89
72438;BME280;60444;43.534;-5.674;2022-09-01T13:13:42;101540.47;;;22.99;77.72
72438;BME280;60444;43.534;-5.674;2022-09-01T13:16:08;101545.44;;;23.05;77.99
72438;BME280;60444;43.534;-5.674;2022-09-01T13:18:37;101550.69;;;23.08;78.02
72438;BME280;60444;43.534;-5.674;2022-09-01T13:21:04;101544.38;;;22.96;76.74
72438;BME280;60444;43.534;-5.674;2022-09-01T13:23:29;101570.00;;;23.08;77.72
72438;BME280;60444;43.534;-5.674;2022-09-01T13:25:55;101559.38;;;23.03;77.15
72438;BME280;60444;43.534;-5.674;2022-09-01T13:28:23;101567.53;;;23.05;77.84
72438;BME280;60444;43.534;-5.674;2022-09-01T13:30:54;101563.59;;;23.07;77.63
72438;BME280;60444;43.534;-5.674;2022-09-01T13:33:21;101565.75;;;23.04;75.24
72438;BME280;60444;43.534;-5.674;2022-09-01T13:35:48;101555.88;;;23.01;76.56
72438;BME280;60444;43.534;-5.674;2022-09-01T13:38:14;101553.88;;;23.13;77.25
72438;BME280;60444;43.534;-5.674;2022-09-01T13:40:42;101566.41;;;23.17;76.41
72438;BME280;60444;43.534;-5.674;2022-09-01T13:43:08;101563.94;;;23.14;76.50
72438;BME280;60444;43.534;-5.674;2022-09-01T13:45:33;101566.13;;;23.20;76.52
72438;BME280;60444;43.534;-5.674;2022-09-01T13:47:59;101571.66;;;23.20;77.42
72438;BME280;60444;43.534;-5.674;2022-09-01T13:50:25;101556.94;;;23.10;77.18
72438;BME280;60444;43.534;-5.674;2022-09-01T13:52:54;101555.75;;;23.03;77.96
72438;BME280;60444;43.534;-5.674;2022-09-01T13:55:28;101556.75;;;23.02;78.01
72438;BME280;60444;43.534;-5.674;2022-09-01T13:57:55;101572.50;;;23.11;77.62
72438;BME280;60444;43.534;-5.674;2022-09-01T14:00:25;101563.50;;;23.09;76.85
72438;BME280;60444;43.534;-5.674;2022-09-01T14:02:53;101547.47;;;23.03;78.25
72438;BME280;60444;43.534;-5.674;2022-09-01T14:05:26;101561.91;;;23.16;78.88
72438;BME280;60444;43.534;-5.674;2022-09-01T14:07:53;101548.38;;;23.13;78.95
72438;BME280;60444;43.534;-5.674;2022-09-01T14:10:20;101528.00;;;23.04;79.18